Flight Track Log - Related Links

Times and Time Zones

All times are in EDT time to prevent confusion due to time zone crossing. See the VH-BDP flight status page for this flight to view local times or setup timezone preferences in your user account.

Time Position Orientation Groundspeed Altitude Reporting Facility
EDT Latitude Longitude Course Direction KTS MPH feet Rate Location/Type
Thu 10:59:40 PM -32.0961 115.9114 132° Southeast 84 97 1,100  Level Aus ATC (RADAR)
Thu 11:00:36 PM -32.1149 115.9363 132° Southeast 110 127 1,000  Descending Aus ATC (RADAR)
Thu 11:01:11 PM -32.1276 115.9526 133° Southeast 112 129 1,100 105 Climbing Aus ATC (RADAR)
Thu 11:02:30 PM -32.1559 115.9912 131° Southeast 116 133 1,200 64 Climbing Aus ATC (RADAR)
Thu 11:02:45 PM -32.1610 115.9978 133° Southeast 111 128 1,200 720 Level Aus ATC (RADAR)
Thu 11:03:20 PM -32.1657 116.0138 109° East 83 96 1,800 800 Climbing Aus ATC (RADAR)
Thu 11:04:15 PM -32.1653 116.0381 89° East 77 89 2,400 467 Climbing Aus ATC (RADAR)
Thu 11:04:50 PM -32.1697 116.0555 106° East 92 106 2,500  Climbing Aus ATC (RADAR)
Thu 11:05:50 PM -32.1698 116.0898 90° East 103 119 2,400  Descending Aus ATC (RADAR)
Thu 11:06:25 PM -32.1629 116.1080 66° East 101 116 2,500 442 Climbing Aus ATC (RADAR)
Thu 11:07:25 PM -32.1511 116.1332 61° Northeast 79 91 3,100 400 Climbing Aus ATC (RADAR)
Thu 11:07:40 PM -32.1466 116.1382 43° Northeast 84 97 3,000  Descending Aus ATC (RADAR)
Thu 11:08:15 PM -32.1317 116.1449 21° North 97 112 3,100 67 Climbing Aus ATC (RADAR)
Thu 11:09:10 PM -32.1088 116.1601 29° Northeast 104 120 3,100  Level Aus ATC (RADAR)
Thu 11:09:44 PM -32.0942 116.1707 32° Northeast 105 121 3,100  Level Aus ATC (RADAR)
Thu 11:10:39 PM -32.0725 116.1862 31° Northeast 99 114 3,100  Level Aus ATC (RADAR)
Thu 11:10:54 PM -32.0665 116.1902 29° Northeast 100 115 3,100  Level Aus ATC (RADAR)
Thu 11:11:29 PM -32.0516 116.1978 23° Northeast 100 115 3,100 -120 Level Aus ATC (RADAR)
Thu 11:12:34 PM -32.0238 116.2109 22° Northeast 99 114 2,900 -75 Descending Aus ATC (RADAR)
Thu 11:12:49 PM -32.0176 116.2136 20° North 98 113 3,000 240 Climbing Aus ATC (RADAR)
Thu 11:13:24 PM -32.0026 116.2197 19° North 99 114 3,100  Climbing Aus ATC (RADAR)
Thu 11:14:24 PM -31.9858 116.2476 55° Northeast 105 121 3,000  Descending Aus ATC (RADAR)
Thu 11:14:59 PM -31.9759 116.2634 54° Northeast 100 115 3,100 67 Climbing Aus ATC (RADAR)
Thu 11:15:54 PM -31.9597 116.2879 52° Northeast 102 117 3,100 -67 Level Aus ATC (RADAR)
Thu 11:16:29 PM -31.9505 116.3040 56° Northeast 100 115 3,000 -60 Descending Aus ATC (RADAR)
Thu 11:17:34 PM -31.9269 116.3262 39° Northeast 103 119 3,000  Level Aus ATC (RADAR)
Thu 11:19:44 PM -31.9533 116.4187 360° North 5,500 802 Climbing Aus ATC (Calculated)
Thu 11:20:41 PM -31.9533 116.4187 360° North 5,500  Level Aus ATC (Calculated)
Thu 11:20:53 PM -31.9533 116.4187 330° Northwest 5,500  Level Aus ATC (Calculated)
Thu 11:22:00 PM -31.9247 116.3991 330° Northwest  Level FlightAware Approximate
Thu 11:22:15 PM -31.9780 116.5056 74° East 5,500  Level Aus ATC (Calculated)
Thu 11:24:00 PM -31.9638 116.5645 112° Southeast  Level Estimated
Thu 11:25:00 PM -31.9739 116.5974 110° East  Level FlightAware Approximate
Thu 11:26:00 PM -31.9841 116.6302 110° East  Level FlightAware Approximate
Thu 11:27:00 PM -31.9942 116.6631 110° East  Level FlightAware Approximate
Thu 11:28:00 PM -32.0043 116.6960 110° East  Level FlightAware Approximate
Thu 11:28:03 PM -32.0242 116.6685 108° East 5,500  Level Aus ATC (Calculated)
Thu 11:29:33 PM -32.0443 116.7398 344° North 5,500  Level Aus ATC (Calculated)
Thu 11:29:33 PM -32.0443 116.7398 108° East 5,500  Level Aus ATC (Calculated)
Thu 11:31:00 PM -32.0579 116.7880 108° East  Level FlightAware Approximate
Thu 11:32:00 PM -32.0673 116.8212 108° East  Level FlightAware Approximate
Thu 11:33:00 PM -32.0766 116.8545 108° East  Level FlightAware Approximate
Thu 11:34:00 PM -32.0860 116.8877 108° East  Level FlightAware Approximate
Thu 11:35:00 PM -32.0953 116.9210 108° East  Level FlightAware Approximate
Thu 11:36:00 PM -32.1046 116.9542 108° East  Level FlightAware Approximate
Thu 11:37:00 PM -32.1139 116.9875 108° East  Level FlightAware Approximate
Thu 11:38:00 PM -32.1232 117.0207 108° East  Level FlightAware Approximate
Thu 11:39:00 PM -32.1325 117.0540 108° East  Level FlightAware Approximate
Thu 11:40:00 PM -32.1418 117.0873 108° East  Level FlightAware Approximate
Thu 11:41:00 PM -32.1510 117.1206 108° East  Level FlightAware Approximate
Thu 11:42:00 PM -32.1603 117.1539 108° East  Level FlightAware Approximate
Thu 11:43:00 PM -32.1696 117.1872 108° East  Level FlightAware Approximate
Thu 11:44:00 PM -32.1788 117.2205 108° East  Level FlightAware Approximate
Thu 11:45:00 PM -32.1881 117.2538 108° East  Level FlightAware Approximate
Thu 11:46:00 PM -32.1973 117.2872 108° East  Level FlightAware Approximate
Thu 11:47:00 PM -32.2065 117.3205 108° East  Level FlightAware Approximate
Thu 11:48:00 PM -32.2157 117.3538 108° East  Level FlightAware Approximate
Thu 11:48:44 PM -32.2127 117.3428 108° East 5,500  Level Aus ATC (Calculated)
Thu 11:50:00 PM -32.2244 117.3850 108° East  Level FlightAware Approximate
Thu 11:51:00 PM -32.2336 117.4184 108° East  Level FlightAware Approximate
Thu 11:52:00 PM -32.2428 117.4517 108° East  Level FlightAware Approximate
Thu 11:53:00 PM -32.2519 117.4851 108° East  Level FlightAware Approximate
Thu 11:54:00 PM -32.2611 117.5185 108° East  Level FlightAware Approximate
Thu 11:55:00 PM -32.2703 117.5519 108° East  Level FlightAware Approximate
Thu 11:56:00 PM -32.2794 117.5853 108° East  Level FlightAware Approximate
Thu 11:57:00 PM -32.2886 117.6186 108° East  Level FlightAware Approximate
Thu 11:58:00 PM -32.2977 117.6520 108° East  Level FlightAware Approximate
Thu 11:59:00 PM -32.3068 117.6854 108° East  Level FlightAware Approximate
Fri 12:00:00 AM -32.3159 117.7189 108° East  Level FlightAware Approximate
Fri 12:01:00 AM -32.3251 117.7523 108° East  Level FlightAware Approximate
Fri 12:02:00 AM -32.3342 117.7857 108° East  Level FlightAware Approximate
Fri 12:02:16 AM -32.3417 117.8133 29° Northeast  Level Aus ATC (Calculated)
Fri 12:04:00 AM -32.3408 117.8139 28° Northeast  Level FlightAware Approximate
Fri 12:05:00 AM -32.3146 117.8303 28° Northeast  Level FlightAware Approximate
Fri 12:06:00 AM -32.2883 117.8467 28° Northeast  Level FlightAware Approximate
Fri 12:07:00 AM -32.2621 117.8631 28° Northeast  Level FlightAware Approximate
Fri 12:08:00 AM -32.2359 117.8795 28° Northeast  Level FlightAware Approximate
Fri 12:09:00 AM -32.2096 117.8959 28° Northeast  Level FlightAware Approximate
Fri 12:10:00 AM -32.1834 117.9122 28° Northeast  Level FlightAware Approximate
Fri 12:11:00 AM -32.1571 117.9286 28° Northeast  Level FlightAware Approximate
Fri 12:12:00 AM -32.1309 117.9450 28° Northeast  Level FlightAware Approximate
Fri 12:13:00 AM -32.1046 117.9613 28° Northeast  Level FlightAware Approximate
Fri 12:14:00 AM -32.0784 117.9777 28° Northeast  Level FlightAware Approximate
Fri 12:15:00 AM -32.0521 117.9940 28° Northeast  Level FlightAware Approximate
Fri 12:16:00 AM -32.0259 118.0103 28° Northeast  Level FlightAware Approximate
Fri 12:17:00 AM -31.9996 118.0266 28° Northeast  Level FlightAware Approximate
Fri 12:18:00 AM -31.9733 118.0429 28° Northeast  Level FlightAware Approximate
Fri 12:19:00 AM -31.9471 118.0592 28° Northeast  Level FlightAware Approximate
Fri 12:20:00 AM -31.9208 118.0755 28° Northeast  Level FlightAware Approximate
Fri 12:21:00 AM -31.8946 118.0918 28° Northeast  Level FlightAware Approximate
Fri 12:22:00 AM -31.8683 118.1080 28° Northeast  Level FlightAware Approximate
Fri 12:23:00 AM -31.8420 118.1243 28° Northeast  Level FlightAware Approximate
Fri 12:24:00 AM -31.8157 118.1405 28° Northeast  Level FlightAware Approximate
Fri 12:25:00 AM -31.7895 118.1567 28° Northeast  Level FlightAware Approximate
Fri 12:26:00 AM -31.7632 118.1730 28° Northeast  Level FlightAware Approximate
Fri 12:27:00 AM -31.7369 118.1892 28° Northeast  Level FlightAware Approximate
Fri 12:28:00 AM -31.7106 118.2054 28° Northeast  Level FlightAware Approximate
Fri 12:29:00 AM -31.6843 118.2216 28° Northeast  Level FlightAware Approximate
Fri 12:30:00 AM -31.6581 118.2378 28° Northeast  Level FlightAware Approximate
Fri 12:31:00 AM -31.6318 118.2539 28° Northeast  Level FlightAware Approximate
Fri 12:32:00 AM -31.6055 118.2701 28° Northeast  Level FlightAware Approximate
Fri 12:33:00 AM -31.5792 118.2863 28° Northeast  Level FlightAware Approximate
Fri 12:34:00 AM -31.5529 118.3024 28° Northeast  Level FlightAware Approximate
Fri 12:35:00 AM -31.5266 118.3186 28° Northeast  Level FlightAware Approximate
Fri 12:36:00 AM -31.5233 118.3206 28° Northeast  Level FlightAware Approximate
Fri 12:37:00 AM -31.5251 118.3221 28° Northeast  Level Estimated
Fri 12:38:00 AM -31.5233 118.3206 28° Northeast  Level FlightAware Approximate
Fri 12:39:00 AM -31.5251 118.3221 28° Northeast  Level Estimated

Login

Don't have an account? Register now (free) for customized features, flight alerts, and more!